Crane, Texas
Current Conditions -  °F | °C
As of 8:53 AM on Tuesday 21 Oct 2014 (Local Time) from KODO Reporting Station
Broken Clouds Broken Clouds  
Wind Chill: 63°   Ceiling: 6000
Heat Index: 63°   Visibility: 9mi
Dew Point: 55°   Wind: 6mph
Humidity: 75%   Direction: 130°SE
Pressure: 30.13"   Gusts: NA
Location:  31.4°N, 102.35°W
Report Text: KODO 211353Z AUTO 13005KT 9SM SCT017 BKN060 BKN085 17/13 A3013 RMK AO2 SLP167 T01720128
Loading
Personal Weather Stations






























Interactive Weather Map New forecast layout! Learn more

10-Day Weather Forecast

Advertisements
Track Severe Weather on mobile